sensor_id;sensor_type;location;lat;lon;timestamp;temperature;humidity
14995;DHT22;7593;49.006;8.372;2022-12-22T00:01:11;11.70;99.90
14995;DHT22;7593;49.006;8.372;2022-12-22T00:03:55;11.70;99.90
14995;DHT22;7593;49.006;8.372;2022-12-22T00:06:40;11.80;99.90
14995;DHT22;7593;49.006;8.372;2022-12-22T00:09:24;11.70;99.90
14995;DHT22;7593;49.006;8.372;2022-12-22T00:12:10;11.50;99.90
14995;DHT22;7593;49.006;8.372;2022-12-22T00:14:55;11.20;99.90
14995;DHT22;7593;49.006;8.372;2022-12-22T00:17:41;11.00;99.90
14995;DHT22;7593;49.006;8.372;2022-12-22T00:20:25;10.80;99.90
14995;DHT22;7593;49.006;8.372;2022-12-22T00:23:09;10.80;99.90
14995;DHT22;7593;49.006;8.372;2022-12-22T00:25:55;10.70;99.90
14995;DHT22;7593;49.006;8.372;2022-12-22T00:28:39;10.50;99.90
14995;DHT22;7593;49.006;8.372;2022-12-22T00:31:24;10.50;99.90
14995;DHT22;7593;49.006;8.372;2022-12-22T00:34:13;10.50;99.90
14995;DHT22;7593;49.006;8.372;2022-12-22T00:36:58;10.40;99.90
14995;DHT22;7593;49.006;8.372;2022-12-22T00:39:43;10.20;99.90
14995;DHT22;7593;49.006;8.372;2022-12-22T00:42:27;10.10;99.90
14995;DHT22;7593;49.006;8.372;2022-12-22T00:45:11;10.00;99.90
14995;DHT22;7593;49.006;8.372;2022-12-22T00:47:55;9.90;99.90
14995;DHT22;7593;49.006;8.372;2022-12-22T00:50:41;9.90;99.90
14995;DHT22;7593;49.006;8.372;2022-12-22T00:53:25;9.80;99.90
14995;DHT22;7593;49.006;8.372;2022-12-22T00:56:09;9.80;99.90
14995;DHT22;7593;49.006;8.372;2022-12-22T00:58:56;9.80;99.90
14995;DHT22;7593;49.006;8.372;2022-12-22T01:01:41;9.80;99.90
14995;DHT22;7593;49.006;8.372;2022-12-22T01:04:25;9.80;99.90
14995;DHT22;7593;49.006;8.372;2022-12-22T01:07:12;9.80;99.90
14995;DHT22;7593;49.006;8.372;2022-12-22T01:09:57;9.80;99.90
14995;DHT22;7593;49.006;8.372;2022-12-22T01:12:41;9.80;99.90
14995;DHT22;7593;49.006;8.372;2022-12-22T01:15:27;9.80;99.90
14995;DHT22;7593;49.006;8.372;2022-12-22T01:18:12;9.80;99.90
14995;DHT22;7593;49.006;8.372;2022-12-22T01:20:57;9.70;99.90
14995;DHT22;7593;49.006;8.372;2022-12-22T01:23:43;9.70;99.90
14995;DHT22;7593;49.006;8.372;2022-12-22T01:26:28;9.70;99.90
14995;DHT22;7593;49.006;8.372;2022-12-22T01:29:12;9.70;99.90
14995;DHT22;7593;49.006;8.372;2022-12-22T01:31:56;9.70;99.90
14995;DHT22;7593;49.006;8.372;2022-12-22T01:34:41;9.70;99.90
14995;DHT22;7593;49.006;8.372;2022-12-22T01:37:25;9.80;99.90
14995;DHT22;7593;49.006;8.372;2022-12-22T01:40:14;9.80;99.90
14995;DHT22;7593;49.006;8.372;2022-12-22T01:42:59;9.90;99.90
14995;DHT22;7593;49.006;8.372;2022-12-22T01:45:43;9.90;99.90
14995;DHT22;7593;49.006;8.372;2022-12-22T01:48:29;9.90;99.90
14995;DHT22;7593;49.006;8.372;2022-12-22T01:51:17;10.00;99.90
14995;DHT22;7593;49.006;8.372;2022-12-22T01:54:02;9.90;99.90
14995;DHT22;7593;49.006;8.372;2022-12-22T01:56:48;10.00;99.90
14995;DHT22;7593;49.006;8.372;2022-12-22T01:59:33;10.00;99.90
14995;DHT22;7593;49.006;8.372;2022-12-22T02:02:18;10.00;99.90
14995;DHT22;7593;49.006;8.372;2022-12-22T02:05:05;10.00;99.90
14995;DHT22;7593;49.006;8.372;2022-12-22T02:07:57;10.00;99.90
14995;DHT22;7593;49.006;8.372;2022-12-22T02:10:58;10.00;99.90
14995;DHT22;7593;49.006;8.372;2022-12-22T02:13:57;10.10;99.90
14995;DHT22;7593;49.006;8.372;2022-12-22T02:16:48;10.10;99.90
14995;DHT22;7593;49.006;8.372;2022-12-22T02:20:05;10.10;99.90
14995;DHT22;7593;49.006;8.372;2022-12-22T02:23:03;10.10;99.90
14995;DHT22;7593;49.006;8.372;2022-12-22T02:25:57;10.10;99.90
14995;DHT22;7593;49.006;8.372;2022-12-22T02:28:45;10.10;99.90
14995;DHT22;7593;49.006;8.372;2022-12-22T02:31:33;10.10;99.90
14995;DHT22;7593;49.006;8.372;2022-12-22T02:34:18;10.10;99.90
14995;DHT22;7593;49.006;8.372;2022-12-22T02:37:08;10.00;99.90
14995;DHT22;7593;49.006;8.372;2022-12-22T02:39:58;10.00;99.90
14995;DHT22;7593;49.006;8.372;2022-12-22T02:42:53;10.00;99.90
14995;DHT22;7593;49.006;8.372;2022-12-22T02:45:47;10.10;99.90
14995;DHT22;7593;49.006;8.372;2022-12-22T02:48:39;10.00;99.90
14995;DHT22;7593;49.006;8.372;2022-12-22T02:51:26;10.00;99.90
14995;DHT22;7593;49.006;8.372;2022-12-22T02:54:12;10.00;99.90
14995;DHT22;7593;49.006;8.372;2022-12-22T02:56:57;10.10;99.90
14995;DHT22;7593;49.006;8.372;2022-12-22T02:59:45;10.00;99.90
14995;DHT22;7593;49.006;8.372;2022-12-22T03:02:30;10.00;99.90
14995;DHT22;7593;49.006;8.372;2022-12-22T03:05:14;10.00;99.90
14995;DHT22;7593;49.006;8.372;2022-12-22T03:07:59;10.00;99.90
14995;DHT22;7593;49.006;8.372;2022-12-22T03:10:43;10.00;99.90
14995;DHT22;7593;49.006;8.372;2022-12-22T03:13:27;10.00;99.90
14995;DHT22;7593;49.006;8.372;2022-12-22T03:16:11;10.00;99.90
14995;DHT22;7593;49.006;8.372;2022-12-22T03:18:57;10.00;99.90
14995;DHT22;7593;49.006;8.372;2022-12-22T03:21:41;10.00;99.90
14995;DHT22;7593;49.006;8.372;2022-12-22T03:24:25;10.10;99.90
14995;DHT22;7593;49.006;8.372;2022-12-22T03:27:09;10.00;99.90
14995;DHT22;7593;49.006;8.372;2022-12-22T03:29:36;10.00;99.90
14995;DHT22;7593;49.006;8.372;2022-12-22T03:32:03;10.10;99.90
14995;DHT22;7593;49.006;8.372;2022-12-22T03:34:31;10.10;99.90
14995;DHT22;7593;49.006;8.372;2022-12-22T03:36:58;10.10;99.90
14995;DHT22;7593;49.006;8.372;2022-12-22T03:39:27;10.10;99.90
14995;DHT22;7593;49.006;8.372;2022-12-22T03:41:54;10.10;99.90
14995;DHT22;7593;49.006;8.372;2022-12-22T03:44:38;10.10;99.90
14995;DHT22;7593;49.006;8.372;2022-12-22T03:47:23;10.10;99.90
14995;DHT22;7593;49.006;8.372;2022-12-22T03:49:51;10.10;99.90
14995;DHT22;7593;49.006;8.372;2022-12-22T03:52:17;10.10;99.90
14995;DHT22;7593;49.006;8.372;2022-12-22T03:54:44;10.10;99.90
14995;DHT22;7593;49.006;8.372;2022-12-22T03:57:11;10.00;99.90
14995;DHT22;7593;49.006;8.372;2022-12-22T03:59:38;10.00;99.90
14995;DHT22;7593;49.006;8.372;2022-12-22T04:02:05;10.00;99.90
14995;DHT22;7593;49.006;8.372;2022-12-22T04:04:32;10.00;99.90
14995;DHT22;7593;49.006;8.372;2022-12-22T04:07:00;10.00;99.90
14995;DHT22;7593;49.006;8.372;2022-12-22T04:09:27;10.00;99.90
14995;DHT22;7593;49.006;8.372;2022-12-22T04:11:54;9.90;99.90
14995;DHT22;7593;49.006;8.372;2022-12-22T04:14:35;9.90;99.90
14995;DHT22;7593;49.006;8.372;2022-12-22T04:17:02;9.90;99.90
14995;DHT22;7593;49.006;8.372;2022-12-22T04:19:29;9.90;99.90
14995;DHT22;7593;49.006;8.372;2022-12-22T04:21:56;9.90;99.90
14995;DHT22;7593;49.006;8.372;2022-12-22T04:24:24;9.90;99.90
14995;DHT22;7593;49.006;8.372;2022-12-22T04:26:50;9.90;99.90
14995;DHT22;7593;49.006;8.372;2022-12-22T04:29:18;9.90;99.90
14995;DHT22;7593;49.006;8.372;2022-12-22T04:31:44;9.90;99.90
14995;DHT22;7593;49.006;8.372;2022-12-22T04:34:11;9.90;99.90
14995;DHT22;7593;49.006;8.372;2022-12-22T04:36:38;9.90;99.90
14995;DHT22;7593;49.006;8.372;2022-12-22T04:39:04;9.90;99.90
14995;DHT22;7593;49.006;8.372;2022-12-22T04:41:33;10.00;99.90
14995;DHT22;7593;49.006;8.372;2022-12-22T04:43:59;10.00;99.90
14995;DHT22;7593;49.006;8.372;2022-12-22T04:46:26;10.00;99.90
14995;DHT22;7593;49.006;8.372;2022-12-22T04:48:53;10.10;99.90
14995;DHT22;7593;49.006;8.372;2022-12-22T04:51:19;10.10;99.90
14995;DHT22;7593;49.006;8.372;2022-12-22T04:53:46;10.10;99.90
14995;DHT22;7593;49.006;8.372;2022-12-22T04:56:13;10.10;99.90
14995;DHT22;7593;49.006;8.372;2022-12-22T04:58:41;10.20;99.90
14995;DHT22;7593;49.006;8.372;2022-12-22T05:01:09;10.20;99.90
14995;DHT22;7593;49.006;8.372;2022-12-22T05:03:36;10.20;99.90
14995;DHT22;7593;49.006;8.372;2022-12-22T05:06:04;10.20;99.90
14995;DHT22;7593;49.006;8.372;2022-12-22T05:08:31;10.20;99.90
14995;DHT22;7593;49.006;8.372;2022-12-22T05:10:57;10.20;99.90
14995;DHT22;7593;49.006;8.372;2022-12-22T05:13:24;10.20;99.90
14995;DHT22;7593;49.006;8.372;2022-12-22T05:15:52;10.20;99.90
14995;DHT22;7593;49.006;8.372;2022-12-22T05:18:20;10.20;99.90
14995;DHT22;7593;49.006;8.372;2022-12-22T05:20:47;10.20;99.90
14995;DHT22;7593;49.006;8.372;2022-12-22T05:23:13;10.20;99.90
14995;DHT22;7593;49.006;8.372;2022-12-22T05:25:40;10.20;99.90
14995;DHT22;7593;49.006;8.372;2022-12-22T05:28:07;10.20;99.90
14995;DHT22;7593;49.006;8.372;2022-12-22T05:30:33;10.30;99.90
14995;DHT22;7593;49.006;8.372;2022-12-22T05:33:02;10.30;99.90
14995;DHT22;7593;49.006;8.372;2022-12-22T05:35:28;10.30;99.90
14995;DHT22;7593;49.006;8.372;2022-12-22T05:37:55;10.30;99.90
14995;DHT22;7593;49.006;8.372;2022-12-22T05:40:22;10.30;99.90
14995;DHT22;7593;49.006;8.372;2022-12-22T05:42:48;10.30;99.90
14995;DHT22;7593;49.006;8.372;2022-12-22T05:45:17;10.30;99.90
14995;DHT22;7593;49.006;8.372;2022-12-22T05:47:46;10.30;99.90
14995;DHT22;7593;49.006;8.372;2022-12-22T05:50:16;10.30;99.90
14995;DHT22;7593;49.006;8.372;2022-12-22T05:52:43;10.30;99.90
14995;DHT22;7593;49.006;8.372;2022-12-22T05:55:11;10.30;99.90
14995;DHT22;7593;49.006;8.372;2022-12-22T05:57:38;10.20;99.90
14995;DHT22;7593;49.006;8.372;2022-12-22T06:00:08;10.10;99.90
14995;DHT22;7593;49.006;8.372;2022-12-22T06:02:35;10.10;99.90
14995;DHT22;7593;49.006;8.372;2022-12-22T06:05:03;10.00;99.90
14995;DHT22;7593;49.006;8.372;2022-12-22T06:07:31;10.00;99.90
14995;DHT22;7593;49.006;8.372;2022-12-22T06:09:58;10.00;99.90
14995;DHT22;7593;49.006;8.372;2022-12-22T06:12:24;10.00;99.90
14995;DHT22;7593;49.006;8.372;2022-12-22T06:14:51;10.00;99.90
14995;DHT22;7593;49.006;8.372;2022-12-22T06:17:18;10.00;99.90
14995;DHT22;7593;49.006;8.372;2022-12-22T06:19:45;10.10;99.90
14995;DHT22;7593;49.006;8.372;2022-12-22T06:22:12;10.10;99.90
14995;DHT22;7593;49.006;8.372;2022-12-22T06:24:40;10.10;99.90
14995;DHT22;7593;49.006;8.372;2022-12-22T06:27:07;10.10;99.90
14995;DHT22;7593;49.006;8.372;2022-12-22T06:29:35;10.10;99.90
14995;DHT22;7593;49.006;8.372;2022-12-22T06:32:02;10.20;99.90
14995;DHT22;7593;49.006;8.372;2022-12-22T06:34:29;10.20;99.90
14995;DHT22;7593;49.006;8.372;2022-12-22T06:36:56;10.20;99.90
14995;DHT22;7593;49.006;8.372;2022-12-22T06:39:23;10.20;99.90
14995;DHT22;7593;49.006;8.372;2022-12-22T06:41:51;10.20;99.90
14995;DHT22;7593;49.006;8.372;2022-12-22T06:44:35;10.10;99.90
14995;DHT22;7593;49.006;8.372;2022-12-22T06:47:02;10.00;99.90
14995;DHT22;7593;49.006;8.372;2022-12-22T06:49:28;10.00;99.90
14995;DHT22;7593;49.006;8.372;2022-12-22T06:51:55;9.90;99.90
14995;DHT22;7593;49.006;8.372;2022-12-22T06:54:22;9.90;99.90
14995;DHT22;7593;49.006;8.372;2022-12-22T06:56:50;9.90;99.90
14995;DHT22;7593;49.006;8.372;2022-12-22T06:59:17;10.00;99.90
14995;DHT22;7593;49.006;8.372;2022-12-22T07:01:44;10.00;99.90
14995;DHT22;7593;49.006;8.372;2022-12-22T07:04:10;10.00;99.90
14995;DHT22;7593;49.006;8.372;2022-12-22T07:06:41;10.10;99.90
14995;DHT22;7593;49.006;8.372;2022-12-22T07:09:08;10.10;99.90
14995;DHT22;7593;49.006;8.372;2022-12-22T07:11:35;10.10;99.90
14995;DHT22;7593;49.006;8.372;2022-12-22T07:14:03;10.10;99.90
14995;DHT22;7593;49.006;8.372;2022-12-22T07:16:30;10.10;99.90
14995;DHT22;7593;49.006;8.372;2022-12-22T07:18:56;10.10;99.90
14995;DHT22;7593;49.006;8.372;2022-12-22T07:21:23;10.10;99.90
14995;DHT22;7593;49.006;8.372;2022-12-22T07:23:50;10.10;99.90
14995;DHT22;7593;49.006;8.372;2022-12-22T07:26:17;10.10;99.90
14995;DHT22;7593;49.006;8.372;2022-12-22T07:28:43;10.20;99.90
14995;DHT22;7593;49.006;8.372;2022-12-22T07:31:13;10.30;99.90
14995;DHT22;7593;49.006;8.372;2022-12-22T07:33:41;10.20;99.90
14995;DHT22;7593;49.006;8.372;2022-12-22T07:36:10;10.20;99.90
14995;DHT22;7593;49.006;8.372;2022-12-22T07:38:39;10.30;99.90
14995;DHT22;7593;49.006;8.372;2022-12-22T07:41:07;10.30;99.90
14995;DHT22;7593;49.006;8.372;2022-12-22T07:44:04;10.30;99.90
14995;DHT22;7593;49.006;8.372;2022-12-22T07:46:34;10.20;99.90
14995;DHT22;7593;49.006;8.372;2022-12-22T07:49:01;10.20;99.90
14995;DHT22;7593;49.006;8.372;2022-12-22T07:51:48;10.20;99.90
14995;DHT22;7593;49.006;8.372;2022-12-22T07:54:16;10.10;99.90
14995;DHT22;7593;49.006;8.372;2022-12-22T07:56:44;10.10;99.90
14995;DHT22;7593;49.006;8.372;2022-12-22T07:59:11;10.10;99.90
14995;DHT22;7593;49.006;8.372;2022-12-22T08:01:40;10.10;99.90
14995;DHT22;7593;49.006;8.372;2022-12-22T08:04:07;10.20;99.90
14995;DHT22;7593;49.006;8.372;2022-12-22T08:06:34;10.20;99.90
14995;DHT22;7593;49.006;8.372;2022-12-22T08:09:01;10.20;99.90
14995;DHT22;7593;49.006;8.372;2022-12-22T08:11:28;10.20;99.90
14995;DHT22;7593;49.006;8.372;2022-12-22T08:13:55;10.30;99.90
14995;DHT22;7593;49.006;8.372;2022-12-22T08:16:29;10.30;99.90
14995;DHT22;7593;49.006;8.372;2022-12-22T08:18:57;10.30;99.90
14995;DHT22;7593;49.006;8.372;2022-12-22T08:21:24;10.30;99.90
14995;DHT22;7593;49.006;8.372;2022-12-22T08:23:51;10.30;99.90
14995;DHT22;7593;49.006;8.372;2022-12-22T08:26:22;10.20;99.90
14995;DHT22;7593;49.006;8.372;2022-12-22T08:28:53;10.20;99.90
14995;DHT22;7593;49.006;8.372;2022-12-22T08:31:24;10.30;99.90
14995;DHT22;7593;49.006;8.372;2022-12-22T08:33:52;10.30;99.90
14995;DHT22;7593;49.006;8.372;2022-12-22T08:36:28;10.30;99.90
14995;DHT22;7593;49.006;8.372;2022-12-22T08:38:56;10.20;99.90
14995;DHT22;7593;49.006;8.372;2022-12-22T08:41:24;10.20;99.90
14995;DHT22;7593;49.006;8.372;2022-12-22T08:44:05;10.30;99.90
14995;DHT22;7593;49.006;8.372;2022-12-22T08:46:32;10.30;99.90
14995;DHT22;7593;49.006;8.372;2022-12-22T08:48:59;10.20;99.90
14995;DHT22;7593;49.006;8.372;2022-12-22T08:51:27;10.10;99.90
14995;DHT22;7593;49.006;8.372;2022-12-22T08:53:53;10.10;99.90
14995;DHT22;7593;49.006;8.372;2022-12-22T08:56:20;10.00;99.90
14995;DHT22;7593;49.006;8.372;2022-12-22T08:58:47;10.00;99.90
14995;DHT22;7593;49.006;8.372;2022-12-22T09:01:17;10.00;99.90
14995;DHT22;7593;49.006;8.372;2022-12-22T09:03:47;10.00;99.90
14995;DHT22;7593;49.006;8.372;2022-12-22T09:06:15;9.90;99.90
14995;DHT22;7593;49.006;8.372;2022-12-22T09:08:43;10.00;99.90
14995;DHT22;7593;49.006;8.372;2022-12-22T09:11:10;10.00;99.90
14995;DHT22;7593;49.006;8.372;2022-12-22T09:13:37;10.00;99.90
14995;DHT22;7593;49.006;8.372;2022-12-22T09:16:04;10.00;99.90
14995;DHT22;7593;49.006;8.372;2022-12-22T09:18:31;9.90;99.90
14995;DHT22;7593;49.006;8.372;2022-12-22T09:20:58;9.90;99.90
14995;DHT22;7593;49.006;8.372;2022-12-22T09:23:24;9.80;99.90
14995;DHT22;7593;49.006;8.372;2022-12-22T09:25:52;9.80;99.90
14995;DHT22;7593;49.006;8.372;2022-12-22T09:28:19;9.80;99.90
14995;DHT22;7593;49.006;8.372;2022-12-22T09:30:48;9.70;99.90
14995;DHT22;7593;49.006;8.372;2022-12-22T09:33:15;9.70;99.90
14995;DHT22;7593;49.006;8.372;2022-12-22T09:35:42;9.70;99.90
14995;DHT22;7593;49.006;8.372;2022-12-22T09:38:09;9.60;99.90
14995;DHT22;7593;49.006;8.372;2022-12-22T09:40:36;9.60;99.90
14995;DHT22;7593;49.006;8.372;2022-12-22T09:43:04;9.60;99.90
14995;DHT22;7593;49.006;8.372;2022-12-22T09:45:31;9.60;99.90
14995;DHT22;7593;49.006;8.372;2022-12-22T09:47:59;9.60;99.90
14995;DHT22;7593;49.006;8.372;2022-12-22T09:50:29;9.60;99.90
14995;DHT22;7593;49.006;8.372;2022-12-22T09:53:00;9.60;99.90
14995;DHT22;7593;49.006;8.372;2022-12-22T09:55:38;9.60;99.90
14995;DHT22;7593;49.006;8.372;2022-12-22T09:58:15;9.70;99.90
14995;DHT22;7593;49.006;8.372;2022-12-22T10:00:43;9.70;99.90
14995;DHT22;7593;49.006;8.372;2022-12-22T10:03:24;9.70;99.90
14995;DHT22;7593;49.006;8.372;2022-12-22T10:05:56;9.80;99.90
14995;DHT22;7593;49.006;8.372;2022-12-22T10:08:28;9.80;99.90
14995;DHT22;7593;49.006;8.372;2022-12-22T10:10:59;9.90;99.90
14995;DHT22;7593;49.006;8.372;2022-12-22T10:13:27;9.90;99.90
14995;DHT22;7593;49.006;8.372;2022-12-22T10:15:53;9.90;99.90
14995;DHT22;7593;49.006;8.372;2022-12-22T10:18:23;10.00;99.90
14995;DHT22;7593;49.006;8.372;2022-12-22T10:21:06;10.00;99.90
14995;DHT22;7593;49.006;8.372;2022-12-22T10:23:35;10.00;99.90
14995;DHT22;7593;49.006;8.372;2022-12-22T10:26:07;10.00;99.90
14995;DHT22;7593;49.006;8.372;2022-12-22T10:28:40;10.00;99.90
14995;DHT22;7593;49.006;8.372;2022-12-22T10:31:12;10.00;99.90
14995;DHT22;7593;49.006;8.372;2022-12-22T10:33:40;10.00;99.90
14995;DHT22;7593;49.006;8.372;2022-12-22T10:36:07;10.00;99.90
14995;DHT22;7593;49.006;8.372;2022-12-22T10:38:36;10.00;99.90
14995;DHT22;7593;49.006;8.372;2022-12-22T10:41:11;10.00;99.90
14995;DHT22;7593;49.006;8.372;2022-12-22T10:43:46;10.00;99.90
14995;DHT22;7593;49.006;8.372;2022-12-22T10:46:13;10.00;99.90
14995;DHT22;7593;49.006;8.372;2022-12-22T10:48:41;10.00;99.90
14995;DHT22;7593;49.006;8.372;2022-12-22T10:51:11;9.90;99.90
14995;DHT22;7593;49.006;8.372;2022-12-22T10:53:44;9.90;99.90
14995;DHT22;7593;49.006;8.372;2022-12-22T10:56:21;9.90;99.90
14995;DHT22;7593;49.006;8.372;2022-12-22T10:58:52;9.90;99.90
14995;DHT22;7593;49.006;8.372;2022-12-22T11:01:24;9.90;99.90
14995;DHT22;7593;49.006;8.372;2022-12-22T11:03:51;9.90;99.90
14995;DHT22;7593;49.006;8.372;2022-12-22T11:06:18;9.80;99.90
14995;DHT22;7593;49.006;8.372;2022-12-22T11:08:45;9.90;99.90
14995;DHT22;7593;49.006;8.372;2022-12-22T11:11:22;9.90;99.90
14995;DHT22;7593;49.006;8.372;2022-12-22T11:14:00;9.90;99.90
14995;DHT22;7593;49.006;8.372;2022-12-22T11:16:33;9.90;99.90
14995;DHT22;7593;49.006;8.372;2022-12-22T11:19:10;9.90;99.90
14995;DHT22;7593;49.006;8.372;2022-12-22T11:21:44;9.90;99.90
14995;DHT22;7593;49.006;8.372;2022-12-22T11:24:24;9.90;99.90
14995;DHT22;7593;49.006;8.372;2022-12-22T11:27:03;9.90;99.90
14995;DHT22;7593;49.006;8.372;2022-12-22T11:29:56;9.90;99.90
14995;DHT22;7593;49.006;8.372;2022-12-22T11:32:41;9.90;99.90
14995;DHT22;7593;49.006;8.372;2022-12-22T11:35:16;9.90;99.90
14995;DHT22;7593;49.006;8.372;2022-12-22T11:37:49;9.90;99.90
14995;DHT22;7593;49.006;8.372;2022-12-22T11:40:27;9.80;99.90
14995;DHT22;7593;49.006;8.372;2022-12-22T11:43:20;9.80;99.90
14995;DHT22;7593;49.006;8.372;2022-12-22T11:45:59;9.80;99.90
14995;DHT22;7593;49.006;8.372;2022-12-22T11:48:53;9.90;99.90
14995;DHT22;7593;49.006;8.372;2022-12-22T11:51:38;9.90;99.90
14995;DHT22;7593;49.006;8.372;2022-12-22T11:54:26;9.90;99.90
14995;DHT22;7593;49.006;8.372;2022-12-22T11:57:00;9.90;99.90
14995;DHT22;7593;49.006;8.372;2022-12-22T11:59:38;9.80;99.90
14995;DHT22;7593;49.006;8.372;2022-12-22T12:05:33;9.90;99.90
14995;DHT22;7593;49.006;8.372;2022-12-22T12:08:09;9.90;99.90
14995;DHT22;7593;49.006;8.372;2022-12-22T12:10:43;9.90;99.90
14995;DHT22;7593;49.006;8.372;2022-12-22T12:13:17;9.90;99.90
14995;DHT22;7593;49.006;8.372;2022-12-22T12:15:48;9.90;99.90
14995;DHT22;7593;49.006;8.372;2022-12-22T12:18:35;9.80;99.90
14995;DHT22;7593;49.006;8.372;2022-12-22T12:21:20;9.90;99.90
14995;DHT22;7593;49.006;8.372;2022-12-22T12:24:21;9.90;99.90
14995;DHT22;7593;49.006;8.372;2022-12-22T12:26:59;9.90;99.90
14995;DHT22;7593;49.006;8.372;2022-12-22T12:29:34;9.90;99.90
14995;DHT22;7593;49.006;8.372;2022-12-22T12:32:05;9.90;99.90
14995;DHT22;7593;49.006;8.372;2022-12-22T12:34:40;9.90;99.90
14995;DHT22;7593;49.006;8.372;2022-12-22T12:37:15;9.90;99.90
14995;DHT22;7593;49.006;8.372;2022-12-22T12:39:54;9.90;99.90
14995;DHT22;7593;49.006;8.372;2022-12-22T12:42:30;9.90;99.90
14995;DHT22;7593;49.006;8.372;2022-12-22T12:44:57;9.90;99.90
14995;DHT22;7593;49.006;8.372;2022-12-22T12:47:26;9.90;99.90
14995;DHT22;7593;49.006;8.372;2022-12-22T12:50:32;9.90;99.90
14995;DHT22;7593;49.006;8.372;2022-12-22T12:53:05;9.90;99.90
14995;DHT22;7593;49.006;8.372;2022-12-22T12:55:33;9.90;99.90
14995;DHT22;7593;49.006;8.372;2022-12-22T12:58:49;9.90;99.90
14995;DHT22;7593;49.006;8.372;2022-12-22T13:10:25;9.90;99.90
14995;DHT22;7593;49.006;8.372;2022-12-22T13:12:53;9.90;99.90
14995;DHT22;7593;49.006;8.372;2022-12-22T13:15:27;9.90;99.90
14995;DHT22;7593;49.006;8.372;2022-12-22T13:17:54;9.90;99.90
14995;DHT22;7593;49.006;8.372;2022-12-22T13:20:24;9.90;99.90
14995;DHT22;7593;49.006;8.372;2022-12-22T13:22:54;9.90;99.90
14995;DHT22;7593;49.006;8.372;2022-12-22T13:25:24;9.90;99.90
14995;DHT22;7593;49.006;8.372;2022-12-22T13:27:54;9.90;99.90
14995;DHT22;7593;49.006;8.372;2022-12-22T13:30:22;9.90;99.90
14995;DHT22;7593;49.006;8.372;2022-12-22T13:32:49;9.90;99.90
14995;DHT22;7593;49.006;8.372;2022-12-22T13:35:19;9.90;99.90
14995;DHT22;7593;49.006;8.372;2022-12-22T13:37:49;10.00;99.90
14995;DHT22;7593;49.006;8.372;2022-12-22T13:40:22;10.00;99.90
14995;DHT22;7593;49.006;8.372;2022-12-22T13:42:51;9.90;99.90
14995;DHT22;7593;49.006;8.372;2022-12-22T13:45:29;9.90;99.90
14995;DHT22;7593;49.006;8.372;2022-12-22T13:47:57;10.00;99.90
14995;DHT22;7593;49.006;8.372;2022-12-22T13:50:29;9.90;99.90
14995;DHT22;7593;49.006;8.372;2022-12-22T13:52:57;10.00;99.90
14995;DHT22;7593;49.006;8.372;2022-12-22T13:55:28;9.90;99.90
14995;DHT22;7593;49.006;8.372;2022-12-22T13:58:02;10.00;99.90
14995;DHT22;7593;49.006;8.372;2022-12-22T14:00:30;10.00;99.90
14995;DHT22;7593;49.006;8.372;2022-12-22T14:02:57;10.00;99.90
14995;DHT22;7593;49.006;8.372;2022-12-22T14:05:29;10.00;99.90
14995;DHT22;7593;49.006;8.372;2022-12-22T14:08:00;10.00;99.90
14995;DHT22;7593;49.006;8.372;2022-12-22T14:10:32;10.00;99.90
14995;DHT22;7593;49.006;8.372;2022-12-22T14:13:01;10.00;99.90
14995;DHT22;7593;49.006;8.372;2022-12-22T14:15:30;10.00;99.90
14995;DHT22;7593;49.006;8.372;2022-12-22T14:17:57;9.90;99.90
14995;DHT22;7593;49.006;8.372;2022-12-22T14:20:26;9.90;99.90
14995;DHT22;7593;49.006;8.372;2022-12-22T14:22:55;9.90;99.90
14995;DHT22;7593;49.006;8.372;2022-12-22T14:25:26;9.90;99.90
14995;DHT22;7593;49.006;8.372;2022-12-22T14:27:56;9.90;99.90
14995;DHT22;7593;49.006;8.372;2022-12-22T14:30:25;9.80;99.90
14995;DHT22;7593;49.006;8.372;2022-12-22T14:32:53;9.80;99.90
14995;DHT22;7593;49.006;8.372;2022-12-22T14:35:24;9.80;99.90
14995;DHT22;7593;49.006;8.372;2022-12-22T14:37:53;9.80;99.90
14995;DHT22;7593;49.006;8.372;2022-12-22T14:40:31;9.80;99.90
14995;DHT22;7593;49.006;8.372;2022-12-22T14:43:03;9.90;99.90
14995;DHT22;7593;49.006;8.372;2022-12-22T14:45:31;9.90;99.90
14995;DHT22;7593;49.006;8.372;2022-12-22T14:47:58;9.90;99.90
14995;DHT22;7593;49.006;8.372;2022-12-22T14:50:26;9.90;99.90
14995;DHT22;7593;49.006;8.372;2022-12-22T14:52:55;9.90;99.90
14995;DHT22;7593;49.006;8.372;2022-12-22T14:55:27;9.90;99.90
14995;DHT22;7593;49.006;8.372;2022-12-22T14:57:58;9.90;99.90
14995;DHT22;7593;49.006;8.372;2022-12-22T15:00:30;10.00;99.90
14995;DHT22;7593;49.006;8.372;2022-12-22T15:02:59;10.00;99.90
14995;DHT22;7593;49.006;8.372;2022-12-22T15:05:29;10.00;99.90
14995;DHT22;7593;49.006;8.372;2022-12-22T15:07:58;10.00;99.90
14995;DHT22;7593;49.006;8.372;2022-12-22T15:10:26;10.00;99.90
14995;DHT22;7593;49.006;8.372;2022-12-22T15:12:57;10.00;99.90
14995;DHT22;7593;49.006;8.372;2022-12-22T15:15:24;10.00;99.90
14995;DHT22;7593;49.006;8.372;2022-12-22T15:17:54;10.00;99.90
14995;DHT22;7593;49.006;8.372;2022-12-22T15:20:22;10.00;99.90
14995;DHT22;7593;49.006;8.372;2022-12-22T15:22:50;10.00;99.90
14995;DHT22;7593;49.006;8.372;2022-12-22T15:25:18;10.00;99.90
14995;DHT22;7593;49.006;8.372;2022-12-22T15:27:45;10.00;99.90
14995;DHT22;7593;49.006;8.372;2022-12-22T15:30:15;10.00;99.90
14995;DHT22;7593;49.006;8.372;2022-12-22T15:32:41;10.00;99.90
14995;DHT22;7593;49.006;8.372;2022-12-22T15:35:18;9.90;99.90
14995;DHT22;7593;49.006;8.372;2022-12-22T15:37:46;10.00;99.90
14995;DHT22;7593;49.006;8.372;2022-12-22T15:40:14;10.00;99.90
14995;DHT22;7593;49.006;8.372;2022-12-22T15:42:42;10.00;99.90
14995;DHT22;7593;49.006;8.372;2022-12-22T15:45:10;9.80;99.90
14995;DHT22;7593;49.006;8.372;2022-12-22T15:47:37;10.00;99.90
14995;DHT22;7593;49.006;8.372;2022-12-22T15:50:05;10.00;99.90
14995;DHT22;7593;49.006;8.372;2022-12-22T15:52:33;10.00;99.90
14995;DHT22;7593;49.006;8.372;2022-12-22T15:55:01;10.00;99.90
14995;DHT22;7593;49.006;8.372;2022-12-22T15:57:28;10.00;99.90
14995;DHT22;7593;49.006;8.372;2022-12-22T15:59:55;10.00;99.90
14995;DHT22;7593;49.006;8.372;2022-12-22T16:02:22;9.90;99.90
14995;DHT22;7593;49.006;8.372;2022-12-22T16:04:48;9.90;99.90
14995;DHT22;7593;49.006;8.372;2022-12-22T16:07:15;9.90;99.90
14995;DHT22;7593;49.006;8.372;2022-12-22T16:09:44;9.80;99.90
14995;DHT22;7593;49.006;8.372;2022-12-22T16:12:14;9.80;99.90
14995;DHT22;7593;49.006;8.372;2022-12-22T16:14:42;9.70;99.90
14995;DHT22;7593;49.006;8.372;2022-12-22T16:17:16;9.70;99.90
14995;DHT22;7593;49.006;8.372;2022-12-22T16:19:43;9.70;99.90
14995;DHT22;7593;49.006;8.372;2022-12-22T16:22:11;9.60;99.90
14995;DHT22;7593;49.006;8.372;2022-12-22T16:24:41;9.70;99.90
14995;DHT22;7593;49.006;8.372;2022-12-22T16:27:10;9.70;99.90
14995;DHT22;7593;49.006;8.372;2022-12-22T16:29:38;9.60;99.90
14995;DHT22;7593;49.006;8.372;2022-12-22T16:32:15;9.60;99.90
14995;DHT22;7593;49.006;8.372;2022-12-22T16:34:42;9.60;99.90
14995;DHT22;7593;49.006;8.372;2022-12-22T16:37:09;9.60;99.90
14995;DHT22;7593;49.006;8.372;2022-12-22T16:39:36;9.60;99.90
14995;DHT22;7593;49.006;8.372;2022-12-22T16:42:03;9.60;99.90
14995;DHT22;7593;49.006;8.372;2022-12-22T16:44:31;9.60;99.90